Terminal Aerodrome Forecast
Issued by NWS

Home | Current Version | Previous Version | Text Only | Print | Product List | Glossary On
Versions: 1 2 3 4 5 6 7 8 9 10 11 12 13 14 15 16 17 18 19 20 21 22
899
FTUS43 KSGF 030520
TAFJLN
TAF
KJLN 030520Z 0306/0406 07006KT P6SM OVC090
     FM031300 10006KT P6SM OVC070
     FM031800 12008KT P6SM VCSH OVC060
     FM040000 11006KT 3SM -SHRA OVC030
     FM040300 10006KT 3SM -SHRA BR OVC015=

USA.gov is the U.S. government's official web portal to all federal, state and local government web resources and services.